sensor_id;sensor_type;location;lat;lon;timestamp;P1;durP1;ratioP1;P2;durP2;ratioP2
64297;SDS011;50639;53.270;7.956;2023-05-07T00:01:12;23.27;;;17.77;;
64297;SDS011;50639;53.270;7.956;2023-05-07T00:03:38;24.42;;;17.73;;
64297;SDS011;50639;53.270;7.956;2023-05-07T00:06:04;21.85;;;16.52;;
64297;SDS011;50639;53.270;7.956;2023-05-07T00:08:30;22.90;;;16.73;;
64297;SDS011;50639;53.270;7.956;2023-05-07T00:10:55;22.02;;;16.77;;
64297;SDS011;50639;53.270;7.956;2023-05-07T00:13:21;24.80;;;17.52;;
64297;SDS011;50639;53.270;7.956;2023-05-07T00:15:46;21.50;;;17.40;;
64297;SDS011;50639;53.270;7.956;2023-05-07T00:18:12;24.95;;;18.08;;
64297;SDS011;50639;53.270;7.956;2023-05-07T00:20:37;26.70;;;18.38;;
64297;SDS011;50639;53.270;7.956;2023-05-07T00:23:03;26.45;;;19.13;;
64297;SDS011;50639;53.270;7.956;2023-05-07T00:25:28;25.83;;;20.33;;
64297;SDS011;50639;53.270;7.956;2023-05-07T00:27:54;34.55;;;20.80;;
64297;SDS011;50639;53.270;7.956;2023-05-07T00:30:19;31.05;;;20.58;;
64297;SDS011;50639;53.270;7.956;2023-05-07T00:32:45;26.10;;;20.48;;
64297;SDS011;50639;53.270;7.956;2023-05-07T00:35:11;28.58;;;20.83;;
64297;SDS011;50639;53.270;7.956;2023-05-07T00:37:36;30.70;;;21.88;;
64297;SDS011;50639;53.270;7.956;2023-05-07T00:40:02;28.85;;;21.35;;
64297;SDS011;50639;53.270;7.956;2023-05-07T00:42:30;26.27;;;19.92;;
64297;SDS011;50639;53.270;7.956;2023-05-07T00:44:57;27.55;;;21.30;;
64297;SDS011;50639;53.270;7.956;2023-05-07T00:47:23;28.27;;;20.88;;
64297;SDS011;50639;53.270;7.956;2023-05-07T00:49:50;34.15;;;21.85;;
64297;SDS011;50639;53.270;7.956;2023-05-07T00:52:16;26.55;;;20.30;;
64297;SDS011;50639;53.270;7.956;2023-05-07T00:54:43;26.90;;;20.48;;
64297;SDS011;50639;53.270;7.956;2023-05-07T00:57:09;29.15;;;23.45;;
64297;SDS011;50639;53.270;7.956;2023-05-07T00:59:36;31.52;;;23.20;;
64297;SDS011;50639;53.270;7.956;2023-05-07T01:02:02;30.48;;;20.80;;
64297;SDS011;50639;53.270;7.956;2023-05-07T01:04:28;36.90;;;22.17;;
64297;SDS011;50639;53.270;7.956;2023-05-07T01:06:55;28.38;;;22.20;;
64297;SDS011;50639;53.270;7.956;2023-05-07T01:09:26;30.55;;;22.27;;
64297;SDS011;50639;53.270;7.956;2023-05-07T01:11:54;27.88;;;21.92;;
64297;SDS011;50639;53.270;7.956;2023-05-07T01:14:22;31.42;;;23.27;;
64297;SDS011;50639;53.270;7.956;2023-05-07T01:16:48;29.52;;;21.40;;
64297;SDS011;50639;53.270;7.956;2023-05-07T01:19:17;31.42;;;22.15;;
64297;SDS011;50639;53.270;7.956;2023-05-07T01:21:47;28.38;;;20.40;;
64297;SDS011;50639;53.270;7.956;2023-05-07T01:24:16;23.63;;;19.98;;
64297;SDS011;50639;53.270;7.956;2023-05-07T01:26:42;24.60;;;19.40;;
64297;SDS011;50639;53.270;7.956;2023-05-07T01:31:42;23.75;;;16.48;;
64297;SDS011;50639;53.270;7.956;2023-05-07T01:34:08;25.17;;;18.70;;
64297;SDS011;50639;53.270;7.956;2023-05-07T01:36:36;22.98;;;20.00;;
64297;SDS011;50639;53.270;7.956;2023-05-07T01:39:03;22.95;;;19.65;;
64297;SDS011;50639;53.270;7.956;2023-05-07T01:41:30;22.25;;;18.92;;
64297;SDS011;50639;53.270;7.956;2023-05-07T01:43:56;24.10;;;18.35;;
64297;SDS011;50639;53.270;7.956;2023-05-07T01:46:23;23.73;;;17.70;;
64297;SDS011;50639;53.270;7.956;2023-05-07T01:48:50;25.23;;;16.63;;
64297;SDS011;50639;53.270;7.956;2023-05-07T01:51:15;23.75;;;16.40;;
64297;SDS011;50639;53.270;7.956;2023-05-07T01:53:41;17.52;;;14.32;;
64297;SDS011;50639;53.270;7.956;2023-05-07T01:56:09;17.73;;;14.35;;
64297;SDS011;50639;53.270;7.956;2023-05-07T01:58:37;20.90;;;15.35;;
64297;SDS011;50639;53.270;7.956;2023-05-07T02:01:02;17.85;;;14.13;;
64297;SDS011;50639;53.270;7.956;2023-05-07T02:03:28;18.45;;;15.20;;
64297;SDS011;50639;53.270;7.956;2023-05-07T02:06:03;22.00;;;15.18;;
64297;SDS011;50639;53.270;7.956;2023-05-07T02:08:34;16.33;;;14.00;;
64297;SDS011;50639;53.270;7.956;2023-05-07T02:11:00;20.48;;;13.63;;
64297;SDS011;50639;53.270;7.956;2023-05-07T02:13:28;16.70;;;13.93;;
64297;SDS011;50639;53.270;7.956;2023-05-07T02:15:55;18.92;;;14.40;;
64297;SDS011;50639;53.270;7.956;2023-05-07T02:18:22;18.77;;;15.50;;
64297;SDS011;50639;53.270;7.956;2023-05-07T02:20:48;21.85;;;16.63;;
64297;SDS011;50639;53.270;7.956;2023-05-07T02:23:13;16.10;;;13.57;;
64297;SDS011;50639;53.270;7.956;2023-05-07T02:25:39;17.17;;;15.32;;
64297;SDS011;50639;53.270;7.956;2023-05-07T02:28:04;18.92;;;15.23;;
64297;SDS011;50639;53.270;7.956;2023-05-07T02:30:53;17.95;;;14.88;;
64297;SDS011;50639;53.270;7.956;2023-05-07T02:33:19;18.85;;;14.90;;
64297;SDS011;50639;53.270;7.956;2023-05-07T02:35:45;19.77;;;14.98;;
64297;SDS011;50639;53.270;7.956;2023-05-07T02:38:13;18.80;;;15.15;;
64297;SDS011;50639;53.270;7.956;2023-05-07T02:40:39;17.42;;;13.90;;
64297;SDS011;50639;53.270;7.956;2023-05-07T02:43:05;16.65;;;14.25;;
64297;SDS011;50639;53.270;7.956;2023-05-07T02:45:31;18.98;;;14.77;;
64297;SDS011;50639;53.270;7.956;2023-05-07T02:47:58;18.00;;;15.25;;
64297;SDS011;50639;53.270;7.956;2023-05-07T02:50:24;18.40;;;14.68;;
64297;SDS011;50639;53.270;7.956;2023-05-07T02:52:50;18.27;;;15.25;;
64297;SDS011;50639;53.270;7.956;2023-05-07T02:55:16;17.27;;;14.85;;
64297;SDS011;50639;53.270;7.956;2023-05-07T02:57:41;19.50;;;16.45;;
64297;SDS011;50639;53.270;7.956;2023-05-07T03:00:14;17.08;;;15.18;;
64297;SDS011;50639;53.270;7.956;2023-05-07T03:02:48;24.20;;;15.50;;
64297;SDS011;50639;53.270;7.956;2023-05-07T03:05:13;16.77;;;13.75;;
64297;SDS011;50639;53.270;7.956;2023-05-07T03:07:39;21.15;;;14.70;;
64297;SDS011;50639;53.270;7.956;2023-05-07T03:10:06;18.77;;;16.20;;
64297;SDS011;50639;53.270;7.956;2023-05-07T03:12:31;22.15;;;16.73;;
64297;SDS011;50639;53.270;7.956;2023-05-07T03:14:57;19.00;;;15.75;;
64297;SDS011;50639;53.270;7.956;2023-05-07T03:17:22;19.25;;;15.32;;
64297;SDS011;50639;53.270;7.956;2023-05-07T03:19:48;20.67;;;15.95;;
64297;SDS011;50639;53.270;7.956;2023-05-07T03:22:13;18.73;;;14.73;;
64297;SDS011;50639;53.270;7.956;2023-05-07T03:24:39;20.65;;;16.17;;
64297;SDS011;50639;53.270;7.956;2023-05-07T03:27:04;19.65;;;16.35;;
64297;SDS011;50639;53.270;7.956;2023-05-07T03:29:31;18.52;;;16.23;;
64297;SDS011;50639;53.270;7.956;2023-05-07T03:31:57;20.38;;;16.75;;
64297;SDS011;50639;53.270;7.956;2023-05-07T03:34:22;20.58;;;15.98;;
64297;SDS011;50639;53.270;7.956;2023-05-07T03:36:48;19.58;;;16.10;;
64297;SDS011;50639;53.270;7.956;2023-05-07T03:39:14;20.83;;;17.08;;
64297;SDS011;50639;53.270;7.956;2023-05-07T03:41:40;20.00;;;15.75;;
64297;SDS011;50639;53.270;7.956;2023-05-07T03:44:05;23.48;;;16.20;;
64297;SDS011;50639;53.270;7.956;2023-05-07T03:46:31;18.65;;;15.75;;
64297;SDS011;50639;53.270;7.956;2023-05-07T03:48:58;20.20;;;16.02;;
64297;SDS011;50639;53.270;7.956;2023-05-07T03:51:24;19.33;;;15.82;;
64297;SDS011;50639;53.270;7.956;2023-05-07T03:53:50;22.38;;;16.40;;
64297;SDS011;50639;53.270;7.956;2023-05-07T03:56:19;16.45;;;14.30;;
64297;SDS011;50639;53.270;7.956;2023-05-07T03:58:45;18.35;;;15.38;;
64297;SDS011;50639;53.270;7.956;2023-05-07T04:01:11;21.70;;;15.07;;
64297;SDS011;50639;53.270;7.956;2023-05-07T04:03:37;23.88;;;15.90;;
64297;SDS011;50639;53.270;7.956;2023-05-07T04:06:03;19.58;;;16.23;;
64297;SDS011;50639;53.270;7.956;2023-05-07T04:08:31;20.77;;;16.17;;
64297;SDS011;50639;53.270;7.956;2023-05-07T04:10:57;19.08;;;16.15;;
64297;SDS011;50639;53.270;7.956;2023-05-07T04:13:27;17.17;;;14.15;;
64297;SDS011;50639;53.270;7.956;2023-05-07T04:15:54;22.42;;;15.27;;
64297;SDS011;50639;53.270;7.956;2023-05-07T04:18:20;18.23;;;15.23;;
64297;SDS011;50639;53.270;7.956;2023-05-07T04:20:47;18.15;;;15.18;;
64297;SDS011;50639;53.270;7.956;2023-05-07T04:23:14;20.30;;;14.93;;
64297;SDS011;50639;53.270;7.956;2023-05-07T04:25:40;19.08;;;14.77;;
64297;SDS011;50639;53.270;7.956;2023-05-07T04:28:42;21.20;;;15.50;;
64297;SDS011;50639;53.270;7.956;2023-05-07T04:31:07;21.30;;;15.02;;
64297;SDS011;50639;53.270;7.956;2023-05-07T04:33:35;20.70;;;15.38;;
64297;SDS011;50639;53.270;7.956;2023-05-07T04:36:01;20.35;;;15.13;;
64297;SDS011;50639;53.270;7.956;2023-05-07T04:38:30;19.55;;;13.70;;
64297;SDS011;50639;53.270;7.956;2023-05-07T04:41:02;21.45;;;15.48;;
64297;SDS011;50639;53.270;7.956;2023-05-07T04:43:30;22.33;;;15.73;;
64297;SDS011;50639;53.270;7.956;2023-05-07T04:45:55;21.58;;;15.82;;
64297;SDS011;50639;53.270;7.956;2023-05-07T04:48:24;20.65;;;15.80;;
64297;SDS011;50639;53.270;7.956;2023-05-07T04:50:51;18.92;;;14.88;;
64297;SDS011;50639;53.270;7.956;2023-05-07T04:53:18;20.00;;;14.93;;
64297;SDS011;50639;53.270;7.956;2023-05-07T04:55:44;21.30;;;14.93;;
64297;SDS011;50639;53.270;7.956;2023-05-07T04:58:11;22.30;;;15.00;;
64297;SDS011;50639;53.270;7.956;2023-05-07T05:00:38;17.52;;;13.23;;
64297;SDS011;50639;53.270;7.956;2023-05-07T05:03:08;16.80;;;13.25;;
64297;SDS011;50639;53.270;7.956;2023-05-07T05:05:36;19.13;;;14.70;;
64297;SDS011;50639;53.270;7.956;2023-05-07T05:08:02;19.30;;;14.98;;
64297;SDS011;50639;53.270;7.956;2023-05-07T05:10:27;17.58;;;13.07;;
64297;SDS011;50639;53.270;7.956;2023-05-07T05:12:54;19.25;;;15.20;;
64297;SDS011;50639;53.270;7.956;2023-05-07T05:15:21;21.20;;;16.05;;
64297;SDS011;50639;53.270;7.956;2023-05-07T05:17:47;20.60;;;15.85;;
64297;SDS011;50639;53.270;7.956;2023-05-07T05:20:13;20.08;;;15.77;;
64297;SDS011;50639;53.270;7.956;2023-05-07T05:22:40;20.53;;;15.80;;
64297;SDS011;50639;53.270;7.956;2023-05-07T05:25:07;19.85;;;16.13;;
64297;SDS011;50639;53.270;7.956;2023-05-07T05:27:33;21.52;;;15.02;;
64297;SDS011;50639;53.270;7.956;2023-05-07T05:29:59;18.75;;;14.98;;
64297;SDS011;50639;53.270;7.956;2023-05-07T05:32:25;17.67;;;14.23;;
64297;SDS011;50639;53.270;7.956;2023-05-07T05:34:53;20.90;;;16.60;;
64297;SDS011;50639;53.270;7.956;2023-05-07T05:37:19;19.70;;;16.17;;
64297;SDS011;50639;53.270;7.956;2023-05-07T05:39:44;18.55;;;15.00;;
64297;SDS011;50639;53.270;7.956;2023-05-07T05:42:10;19.05;;;15.38;;
64297;SDS011;50639;53.270;7.956;2023-05-07T05:44:35;18.20;;;13.98;;
64297;SDS011;50639;53.270;7.956;2023-05-07T05:47:02;19.52;;;15.05;;
64297;SDS011;50639;53.270;7.956;2023-05-07T05:49:29;18.45;;;14.50;;
64297;SDS011;50639;53.270;7.956;2023-05-07T05:51:55;17.30;;;13.20;;
64297;SDS011;50639;53.270;7.956;2023-05-07T05:54:23;18.92;;;14.38;;
64297;SDS011;50639;53.270;7.956;2023-05-07T05:56:48;17.58;;;13.40;;
64297;SDS011;50639;53.270;7.956;2023-05-07T05:59:14;19.38;;;14.85;;
64297;SDS011;50639;53.270;7.956;2023-05-07T06:01:40;16.60;;;13.00;;
64297;SDS011;50639;53.270;7.956;2023-05-07T06:04:06;16.95;;;13.70;;
64297;SDS011;50639;53.270;7.956;2023-05-07T06:06:31;17.23;;;13.60;;
64297;SDS011;50639;53.270;7.956;2023-05-07T06:08:57;19.92;;;13.65;;
64297;SDS011;50639;53.270;7.956;2023-05-07T06:11:29;18.25;;;13.55;;
64297;SDS011;50639;53.270;7.956;2023-05-07T06:13:54;17.88;;;12.95;;
64297;SDS011;50639;53.270;7.956;2023-05-07T06:16:20;15.82;;;12.57;;
64297;SDS011;50639;53.270;7.956;2023-05-07T06:18:47;19.70;;;13.80;;
64297;SDS011;50639;53.270;7.956;2023-05-07T06:21:13;15.67;;;12.77;;
64297;SDS011;50639;53.270;7.956;2023-05-07T06:23:40;16.40;;;12.27;;
64297;SDS011;50639;53.270;7.956;2023-05-07T06:26:06;18.10;;;13.02;;
64297;SDS011;50639;53.270;7.956;2023-05-07T06:28:37;17.08;;;12.70;;
64297;SDS011;50639;53.270;7.956;2023-05-07T06:31:15;15.02;;;12.35;;
64297;SDS011;50639;53.270;7.956;2023-05-07T06:33:46;17.30;;;12.25;;
64297;SDS011;50639;53.270;7.956;2023-05-07T06:36:13;17.52;;;13.27;;
64297;SDS011;50639;53.270;7.956;2023-05-07T06:38:39;15.60;;;12.85;;
64297;SDS011;50639;53.270;7.956;2023-05-07T06:41:05;16.73;;;12.88;;
64297;SDS011;50639;53.270;7.956;2023-05-07T06:43:31;15.70;;;12.30;;
64297;SDS011;50639;53.270;7.956;2023-05-07T06:46:30;15.63;;;12.10;;
64297;SDS011;50639;53.270;7.956;2023-05-07T06:48:56;16.75;;;12.82;;
64297;SDS011;50639;53.270;7.956;2023-05-07T06:51:22;15.52;;;11.73;;
64297;SDS011;50639;53.270;7.956;2023-05-07T06:53:48;16.17;;;12.02;;
64297;SDS011;50639;53.270;7.956;2023-05-07T06:56:14;16.05;;;12.07;;
64297;SDS011;50639;53.270;7.956;2023-05-07T06:58:39;15.75;;;11.63;;
64297;SDS011;50639;53.270;7.956;2023-05-07T07:01:06;13.85;;;11.63;;
64297;SDS011;50639;53.270;7.956;2023-05-07T07:03:33;14.77;;;11.15;;
64297;SDS011;50639;53.270;7.956;2023-05-07T07:05:58;16.25;;;11.70;;
64297;SDS011;50639;53.270;7.956;2023-05-07T07:08:25;13.40;;;11.60;;
64297;SDS011;50639;53.270;7.956;2023-05-07T07:10:50;14.20;;;11.32;;
64297;SDS011;50639;53.270;7.956;2023-05-07T07:13:16;13.88;;;11.23;;
64297;SDS011;50639;53.270;7.956;2023-05-07T07:15:42;12.98;;;10.73;;
64297;SDS011;50639;53.270;7.956;2023-05-07T07:18:08;12.13;;;10.30;;
64297;SDS011;50639;53.270;7.956;2023-05-07T07:20:34;14.80;;;10.52;;
64297;SDS011;50639;53.270;7.956;2023-05-07T07:23:00;16.10;;;9.18;;
64297;SDS011;50639;53.270;7.956;2023-05-07T07:25:25;11.68;;;9.18;;
64297;SDS011;50639;53.270;7.956;2023-05-07T07:27:52;14.02;;;9.68;;
64297;SDS011;50639;53.270;7.956;2023-05-07T07:30:18;12.13;;;9.48;;
64297;SDS011;50639;53.270;7.956;2023-05-07T07:32:46;12.85;;;9.40;;
64297;SDS011;50639;53.270;7.956;2023-05-07T07:35:12;10.90;;;8.45;;
64297;SDS011;50639;53.270;7.956;2023-05-07T07:37:38;10.90;;;8.57;;
64297;SDS011;50639;53.270;7.956;2023-05-07T07:40:04;10.32;;;8.57;;
64297;SDS011;50639;53.270;7.956;2023-05-07T07:44:56;10.98;;;8.70;;
64297;SDS011;50639;53.270;7.956;2023-05-07T07:47:24;12.80;;;9.20;;
64297;SDS011;50639;53.270;7.956;2023-05-07T07:49:51;10.05;;;8.18;;
64297;SDS011;50639;53.270;7.956;2023-05-07T07:52:17;11.18;;;8.40;;
64297;SDS011;50639;53.270;7.956;2023-05-07T07:54:44;12.38;;;9.48;;
64297;SDS011;50639;53.270;7.956;2023-05-07T07:57:10;11.40;;;8.65;;
64297;SDS011;50639;53.270;7.956;2023-05-07T07:59:36;11.02;;;8.10;;
64297;SDS011;50639;53.270;7.956;2023-05-07T08:02:03;11.00;;;8.70;;
64297;SDS011;50639;53.270;7.956;2023-05-07T08:04:29;11.55;;;8.32;;
64297;SDS011;50639;53.270;7.956;2023-05-07T08:06:59;11.05;;;8.23;;
64297;SDS011;50639;53.270;7.956;2023-05-07T08:09:25;11.07;;;8.52;;
64297;SDS011;50639;53.270;7.956;2023-05-07T08:14:18;10.45;;;7.90;;
64297;SDS011;50639;53.270;7.956;2023-05-07T08:16:46;9.40;;;7.90;;
64297;SDS011;50639;53.270;7.956;2023-05-07T08:19:12;10.88;;;8.10;;
64297;SDS011;50639;53.270;7.956;2023-05-07T08:21:40;10.55;;;8.40;;
64297;SDS011;50639;53.270;7.956;2023-05-07T08:24:07;11.13;;;8.50;;
64297;SDS011;50639;53.270;7.956;2023-05-07T08:26:34;9.57;;;7.93;;
64297;SDS011;50639;53.270;7.956;2023-05-07T08:31:27;11.57;;;8.07;;
64297;SDS011;50639;53.270;7.956;2023-05-07T08:33:52;9.55;;;7.18;;
64297;SDS011;50639;53.270;7.956;2023-05-07T08:36:17;9.23;;;7.63;;
64297;SDS011;50639;53.270;7.956;2023-05-07T08:38:44;10.60;;;7.53;;
64297;SDS011;50639;53.270;7.956;2023-05-07T08:41:11;9.75;;;8.00;;
64297;SDS011;50639;53.270;7.956;2023-05-07T08:43:38;8.77;;;7.00;;
64297;SDS011;50639;53.270;7.956;2023-05-07T08:46:06;11.15;;;7.85;;
64297;SDS011;50639;53.270;7.956;2023-05-07T08:48:36;10.23;;;7.78;;
64297;SDS011;50639;53.270;7.956;2023-05-07T08:51:13;9.23;;;7.45;;
64297;SDS011;50639;53.270;7.956;2023-05-07T08:53:42;10.38;;;8.13;;
64297;SDS011;50639;53.270;7.956;2023-05-07T08:56:13;9.82;;;7.25;;
64297;SDS011;50639;53.270;7.956;2023-05-07T09:01:07;9.00;;;7.45;;
64297;SDS011;50639;53.270;7.956;2023-05-07T09:03:36;9.70;;;7.45;;
64297;SDS011;50639;53.270;7.956;2023-05-07T09:06:03;9.68;;;7.88;;
64297;SDS011;50639;53.270;7.956;2023-05-07T09:08:29;8.98;;;7.15;;
64297;SDS011;50639;53.270;7.956;2023-05-07T09:10:58;9.63;;;7.22;;
64297;SDS011;50639;53.270;7.956;2023-05-07T09:13:24;9.02;;;7.47;;
64297;SDS011;50639;53.270;7.956;2023-05-07T09:15:50;10.13;;;6.50;;
64297;SDS011;50639;53.270;7.956;2023-05-07T09:18:15;9.40;;;7.72;;
64297;SDS011;50639;53.270;7.956;2023-05-07T09:20:41;9.50;;;7.50;;
64297;SDS011;50639;53.270;7.956;2023-05-07T09:23:08;15.05;;;11.27;;
64297;SDS011;50639;53.270;7.956;2023-05-07T09:25:35;9.57;;;7.43;;
64297;SDS011;50639;53.270;7.956;2023-05-07T09:28:08;9.05;;;7.13;;
64297;SDS011;50639;53.270;7.956;2023-05-07T09:30:36;9.57;;;7.75;;
64297;SDS011;50639;53.270;7.956;2023-05-07T09:33:04;9.32;;;7.85;;
64297;SDS011;50639;53.270;7.956;2023-05-07T09:35:32;10.10;;;7.75;;
64297;SDS011;50639;53.270;7.956;2023-05-07T09:38:03;10.68;;;7.80;;
64297;SDS011;50639;53.270;7.956;2023-05-07T09:40:30;9.82;;;7.22;;
64297;SDS011;50639;53.270;7.956;2023-05-07T09:43:10;9.40;;;7.20;;
64297;SDS011;50639;53.270;7.956;2023-05-07T09:45:41;11.05;;;7.75;;
64297;SDS011;50639;53.270;7.956;2023-05-07T09:48:11;9.43;;;7.53;;
64297;SDS011;50639;53.270;7.956;2023-05-07T09:50:49;9.40;;;7.55;;
64297;SDS011;50639;53.270;7.956;2023-05-07T09:53:25;11.52;;;7.60;;
64297;SDS011;50639;53.270;7.956;2023-05-07T09:55:51;10.13;;;7.03;;
64297;SDS011;50639;53.270;7.956;2023-05-07T09:58:19;9.27;;;7.38;;
64297;SDS011;50639;53.270;7.956;2023-05-07T10:00:49;9.27;;;7.35;;
64297;SDS011;50639;53.270;7.956;2023-05-07T10:03:16;9.45;;;6.72;;
64297;SDS011;50639;53.270;7.956;2023-05-07T10:05:51;10.13;;;6.78;;
64297;SDS011;50639;53.270;7.956;2023-05-07T10:08:20;10.00;;;7.13;;
64297;SDS011;50639;53.270;7.956;2023-05-07T10:10:48;9.20;;;7.07;;
64297;SDS011;50639;53.270;7.956;2023-05-07T10:13:21;8.52;;;6.47;;
64297;SDS011;50639;53.270;7.956;2023-05-07T10:15:50;8.68;;;6.60;;
64297;SDS011;50639;53.270;7.956;2023-05-07T10:18:16;9.38;;;6.95;;
64297;SDS011;50639;53.270;7.956;2023-05-07T10:20:48;13.88;;;6.85;;
64297;SDS011;50639;53.270;7.956;2023-05-07T10:23:19;16.08;;;10.30;;
64297;SDS011;50639;53.270;7.956;2023-05-07T10:25:53;13.30;;;8.90;;
64297;SDS011;50639;53.270;7.956;2023-05-07T10:28:22;14.90;;;10.73;;
64297;SDS011;50639;53.270;7.956;2023-05-07T10:33:48;20.90;;;14.40;;
64297;SDS011;50639;53.270;7.956;2023-05-07T10:36:25;12.40;;;10.40;;
64297;SDS011;50639;53.270;7.956;2023-05-07T10:38:56;12.48;;;11.02;;
64297;SDS011;50639;53.270;7.956;2023-05-07T10:41:27;12.43;;;7.43;;
64297;SDS011;50639;53.270;7.956;2023-05-07T10:43:56;10.15;;;6.68;;
64297;SDS011;50639;53.270;7.956;2023-05-07T10:46:30;8.55;;;6.30;;
64297;SDS011;50639;53.270;7.956;2023-05-07T10:54:44;7.97;;;6.50;;
64297;SDS011;50639;53.270;7.956;2023-05-07T10:59:58;9.07;;;6.57;;
64297;SDS011;50639;53.270;7.956;2023-05-07T11:03:04;8.10;;;6.43;;
64297;SDS011;50639;53.270;7.956;2023-05-07T11:05:36;8.13;;;6.60;;
64297;SDS011;50639;53.270;7.956;2023-05-07T11:08:14;8.10;;;6.25;;
64297;SDS011;50639;53.270;7.956;2023-05-07T11:13:40;10.38;;;6.55;;
64297;SDS011;50639;53.270;7.956;2023-05-07T11:16:18;8.60;;;6.47;;
64297;SDS011;50639;53.270;7.956;2023-05-07T11:18:54;8.30;;;6.50;;
64297;SDS011;50639;53.270;7.956;2023-05-07T11:24:12;8.75;;;6.82;;
64297;SDS011;50639;53.270;7.956;2023-05-07T11:26:47;8.25;;;6.57;;
64297;SDS011;50639;53.270;7.956;2023-05-07T11:31:42;10.07;;;6.97;;
64297;SDS011;50639;53.270;7.956;2023-05-07T11:34:08;7.70;;;6.13;;
64297;SDS011;50639;53.270;7.956;2023-05-07T11:36:34;8.10;;;7.00;;
64297;SDS011;50639;53.270;7.956;2023-05-07T11:39:06;10.13;;;7.18;;
64297;SDS011;50639;53.270;7.956;2023-05-07T11:41:48;9.98;;;6.82;;
64297;SDS011;50639;53.270;7.956;2023-05-07T11:44:13;8.68;;;6.68;;
64297;SDS011;50639;53.270;7.956;2023-05-07T11:46:42;8.82;;;6.63;;
64297;SDS011;50639;53.270;7.956;2023-05-07T11:49:08;8.63;;;6.40;;
64297;SDS011;50639;53.270;7.956;2023-05-07T11:51:33;11.00;;;7.38;;
64297;SDS011;50639;53.270;7.956;2023-05-07T11:53:59;12.00;;;7.18;;
64297;SDS011;50639;53.270;7.956;2023-05-07T11:56:24;9.75;;;7.28;;
64297;SDS011;50639;53.270;7.956;2023-05-07T11:58:50;9.88;;;7.22;;
64297;SDS011;50639;53.270;7.956;2023-05-07T12:03:44;10.57;;;7.18;;
64297;SDS011;50639;53.270;7.956;2023-05-07T12:06:11;12.80;;;7.97;;
64297;SDS011;50639;53.270;7.956;2023-05-07T12:08:38;8.88;;;7.53;;
64297;SDS011;50639;53.270;7.956;2023-05-07T12:11:09;9.30;;;6.90;;
64297;SDS011;50639;53.270;7.956;2023-05-07T12:13:37;9.60;;;7.55;;
64297;SDS011;50639;53.270;7.956;2023-05-07T12:16:03;8.90;;;7.35;;
64297;SDS011;50639;53.270;7.956;2023-05-07T12:20:56;9.25;;;7.60;;
64297;SDS011;50639;53.270;7.956;2023-05-07T12:23:22;10.88;;;7.22;;
64297;SDS011;50639;53.270;7.956;2023-05-07T12:25:47;12.68;;;7.57;;
64297;SDS011;50639;53.270;7.956;2023-05-07T12:28:17;9.13;;;7.82;;
64297;SDS011;50639;53.270;7.956;2023-05-07T12:30:43;10.98;;;7.40;;
64297;SDS011;50639;53.270;7.956;2023-05-07T12:33:09;10.85;;;7.60;;
64297;SDS011;50639;53.270;7.956;2023-05-07T12:35:36;9.30;;;7.18;;
64297;SDS011;50639;53.270;7.956;2023-05-07T12:38:09;9.02;;;6.95;;
64297;SDS011;50639;53.270;7.956;2023-05-07T12:40:37;9.88;;;7.22;;
64297;SDS011;50639;53.270;7.956;2023-05-07T12:43:04;9.18;;;7.47;;
64297;SDS011;50639;53.270;7.956;2023-05-07T12:45:29;12.00;;;8.00;;
64297;SDS011;50639;53.270;7.956;2023-05-07T12:47:55;11.38;;;8.90;;
64297;SDS011;50639;53.270;7.956;2023-05-07T12:50:25;10.77;;;7.60;;
64297;SDS011;50639;53.270;7.956;2023-05-07T12:52:55;10.18;;;7.65;;
64297;SDS011;50639;53.270;7.956;2023-05-07T12:55:21;9.32;;;7.35;;
64297;SDS011;50639;53.270;7.956;2023-05-07T12:57:48;10.35;;;7.80;;
64297;SDS011;50639;53.270;7.956;2023-05-07T13:00:15;8.95;;;7.68;;
64297;SDS011;50639;53.270;7.956;2023-05-07T13:02:41;8.98;;;7.30;;
64297;SDS011;50639;53.270;7.956;2023-05-07T13:05:11;10.90;;;7.30;;
64297;SDS011;50639;53.270;7.956;2023-05-07T13:07:37;13.52;;;9.30;;
64297;SDS011;50639;53.270;7.956;2023-05-07T13:10:03;11.13;;;9.00;;
64297;SDS011;50639;53.270;7.956;2023-05-07T13:12:29;9.77;;;7.38;;
64297;SDS011;50639;53.270;7.956;2023-05-07T13:14:55;9.93;;;7.07;;
64297;SDS011;50639;53.270;7.956;2023-05-07T13:17:20;8.32;;;6.75;;
64297;SDS011;50639;53.270;7.956;2023-05-07T13:19:46;10.15;;;6.97;;
64297;SDS011;50639;53.270;7.956;2023-05-07T13:22:11;8.93;;;6.90;;
64297;SDS011;50639;53.270;7.956;2023-05-07T13:24:37;10.48;;;6.95;;
64297;SDS011;50639;53.270;7.956;2023-05-07T13:27:03;10.13;;;7.57;;
64297;SDS011;50639;53.270;7.956;2023-05-07T13:29:29;8.80;;;6.95;;
64297;SDS011;50639;53.270;7.956;2023-05-07T13:31:58;9.68;;;7.63;;
64297;SDS011;50639;53.270;7.956;2023-05-07T13:34:49;9.93;;;7.40;;
64297;SDS011;50639;53.270;7.956;2023-05-07T13:37:14;8.98;;;7.30;;
64297;SDS011;50639;53.270;7.956;2023-05-07T13:39:40;10.68;;;7.88;;
64297;SDS011;50639;53.270;7.956;2023-05-07T13:42:06;9.75;;;7.63;;
64297;SDS011;50639;53.270;7.956;2023-05-07T13:44:31;9.00;;;7.28;;
64297;SDS011;50639;53.270;7.956;2023-05-07T13:46:57;8.75;;;7.28;;
64297;SDS011;50639;53.270;7.956;2023-05-07T13:49:22;9.07;;;7.20;;
64297;SDS011;50639;53.270;7.956;2023-05-07T13:51:48;10.07;;;8.00;;
64297;SDS011;50639;53.270;7.956;2023-05-07T13:54:14;10.65;;;7.25;;
64297;SDS011;50639;53.270;7.956;2023-05-07T13:56:39;10.43;;;7.22;;
64297;SDS011;50639;53.270;7.956;2023-05-07T13:59:05;9.35;;;6.60;;
64297;SDS011;50639;53.270;7.956;2023-05-07T14:01:30;9.13;;;6.93;;
64297;SDS011;50639;53.270;7.956;2023-05-07T14:03:56;8.98;;;6.88;;
64297;SDS011;50639;53.270;7.956;2023-05-07T14:06:25;10.02;;;6.80;;
64297;SDS011;50639;53.270;7.956;2023-05-07T14:08:51;8.65;;;6.47;;
64297;SDS011;50639;53.270;7.956;2023-05-07T14:11:25;8.40;;;6.35;;
64297;SDS011;50639;53.270;7.956;2023-05-07T14:13:50;9.20;;;6.85;;
64297;SDS011;50639;53.270;7.956;2023-05-07T14:16:23;10.50;;;6.18;;
64297;SDS011;50639;53.270;7.956;2023-05-07T14:18:48;12.27;;;6.72;;
64297;SDS011;50639;53.270;7.956;2023-05-07T14:21:14;8.15;;;6.13;;
64297;SDS011;50639;53.270;7.956;2023-05-07T14:23:39;7.93;;;5.65;;
64297;SDS011;50639;53.270;7.956;2023-05-07T14:26:05;7.00;;;5.55;;
64297;SDS011;50639;53.270;7.956;2023-05-07T14:28:30;7.35;;;5.63;;
64297;SDS011;50639;53.270;7.956;2023-05-07T14:30:56;8.10;;;5.70;;
64297;SDS011;50639;53.270;7.956;2023-05-07T14:33:21;9.55;;;6.00;;
64297;SDS011;50639;53.270;7.956;2023-05-07T14:35:47;7.00;;;5.43;;
64297;SDS011;50639;53.270;7.956;2023-05-07T14:38:14;7.55;;;5.70;;
64297;SDS011;50639;53.270;7.956;2023-05-07T14:40:40;7.95;;;6.05;;
64297;SDS011;50639;53.270;7.956;2023-05-07T14:43:06;7.10;;;5.53;;
64297;SDS011;50639;53.270;7.956;2023-05-07T14:45:31;8.43;;;6.13;;
64297;SDS011;50639;53.270;7.956;2023-05-07T14:47:56;8.85;;;5.60;;
64297;SDS011;50639;53.270;7.956;2023-05-07T14:50:22;7.80;;;5.43;;
64297;SDS011;50639;53.270;7.956;2023-05-07T14:52:47;7.85;;;5.47;;
64297;SDS011;50639;53.270;7.956;2023-05-07T14:55:12;7.40;;;5.40;;
64297;SDS011;50639;53.270;7.956;2023-05-07T14:57:38;9.38;;;5.30;;
64297;SDS011;50639;53.270;7.956;2023-05-07T15:00:03;7.50;;;5.53;;
64297;SDS011;50639;53.270;7.956;2023-05-07T15:02:32;9.32;;;6.47;;
64297;SDS011;50639;53.270;7.956;2023-05-07T15:04:58;8.05;;;5.75;;
64297;SDS011;50639;53.270;7.956;2023-05-07T15:09:50;13.30;;;5.97;;
64297;SDS011;50639;53.270;7.956;2023-05-07T15:12:16;7.65;;;5.30;;